Time;durP1;ratioP1;P1;durP2;ratioP2;P2;SDS_P1;SDS_P2;PMS_P1;PMS_P2;Temp;Humidity;BMP_temperature;BMP_pressure;BME280_temperature;BME280_humidity;BME280_pressure;Samples;Min_cycle;Max_cycle;Signal;HPM_P1;HPM_P2
2022/04/01 00:00:31;;;;;;;12.82;11.40;;;6.30;99.90;;;;;;5051933;28;20465;-70
2022/04/01 00:02:57;;;;;;;13.07;11.77;;;6.20;99.90;;;;;;5051198;28;20069;-70
2022/04/01 00:05:23;;;;;;;11.80;10.70;;;6.20;99.90;;;;;;5051549;28;20478;-69
2022/04/01 00:07:48;;;;;;;12.35;11.18;;;6.20;99.90;;;;;;5051105;28;20083;-74
2022/04/01 00:10:14;;;;;;;13.20;11.90;;;6.20;99.90;;;;;;5051684;28;20029;-69
2022/04/01 00:12:41;;;;;;;13.52;12.23;;;6.20;99.90;;;;;;5051393;28;20027;-69
2022/04/01 00:15:08;;;;;;;13.05;11.88;;;6.20;99.90;;;;;;5050958;28;20040;-70
2022/04/01 00:17:33;;;;;;;13.00;11.73;;;6.20;99.90;;;;;;5051755;28;20029;-70
2022/04/01 00:19:59;;;;;;;13.13;11.93;;;6.20;99.90;;;;;;5051340;28;20079;-69
2022/04/01 00:22:25;;;;;;;12.70;11.50;;;6.20;99.90;;;;;;5051311;28;20326;-69
2022/04/01 00:24:50;;;;;;;13.77;12.48;;;6.20;99.90;;;;;;5050594;28;20028;-71
2022/04/01 00:27:16;;;;;;;13.43;12.15;;;6.20;99.90;;;;;;5051469;28;20068;-70
2022/04/01 00:29:41;;;;;;;13.20;12.00;;;6.20;99.90;;;;;;5051904;28;20452;-70
2022/04/01 00:32:07;;;;;;;13.05;11.82;;;6.20;99.90;;;;;;5050576;28;20028;-70
2022/04/01 00:34:34;;;;;;;13.63;12.32;;;6.20;99.90;;;;;;5051536;28;20028;-69
2022/04/01 00:37:01;;;;;;;14.13;12.73;;;6.20;99.90;;;;;;5050764;28;20025;-70
2022/04/01 00:39:32;;;;;;;13.73;12.32;;;6.20;99.90;;;;;;5051133;28;20470;-70
2022/04/01 00:42:00;;;;;;;13.75;12.38;;;6.10;99.90;;;;;;5050927;28;20058;-69
2022/04/01 00:44:29;;;;;;;13.40;12.10;;;6.10;99.90;;;;;;5051261;28;20033;-69
2022/04/01 00:47:14;;;;;;;14.73;13.23;;;6.10;99.90;;;;;;5050378;28;20044;-69
2022/04/01 00:49:42;;;;;;;14.55;13.07;;;6.10;99.90;;;;;;5051082;28;20120;-68
2022/04/01 00:52:10;;;;;;;13.73;12.32;;;6.10;99.90;;;;;;5050542;28;20451;-69
2022/04/01 00:54:36;;;;;;;13.88;12.48;;;6.10;99.90;;;;;;5051010;28;20025;-69
2022/04/01 00:57:03;;;;;;;14.05;12.65;;;6.10;99.90;;;;;;5050796;28;20124;-70
2022/04/01 00:59:29;;;;;;;12.80;11.57;;;6.10;99.90;;;;;;5050960;28;20489;-70
2022/04/01 01:01:55;;;;;;;13.88;12.57;;;6.10;99.90;;;;;;5050726;28;20029;-70
2022/04/01 01:04:21;;;;;;;13.35;12.13;;;6.10;99.90;;;;;;5054981;28;20426;-70
2022/04/01 01:06:50;;;;;;;14.45;12.95;;;6.00;99.90;;;;;;5054703;28;20082;-69
2022/04/01 01:09:16;;;;;;;13.93;12.63;;;6.00;99.90;;;;;;5054120;28;20087;-69
2022/04/01 01:11:44;;;;;;;14.45;12.95;;;6.00;99.90;;;;;;5054758;28;20029;-69
2022/04/01 01:14:11;;;;;;;13.95;12.55;;;6.00;99.90;;;;;;5054156;28;20104;-71
2022/04/01 01:16:42;;;;;;;14.80;13.20;;;6.00;99.90;;;;;;5052740;28;20446;-70
2022/04/01 01:19:11;;;;;;;13.83;12.53;;;5.90;99.90;;;;;;5052901;28;20158;-70
2022/04/01 01:21:38;;;;;;;13.98;12.57;;;5.90;99.90;;;;;;5054359;28;20049;-69
2022/04/01 01:24:06;;;;;;;13.85;12.40;;;5.90;99.90;;;;;;5053656;28;20531;-70
2022/04/01 01:26:34;;;;;;;13.45;12.05;;;5.80;99.90;;;;;;5054368;28;20304;-69
2022/04/01 01:29:00;;;;;;;13.02;11.85;;;5.80;99.90;;;;;;5053891;28;20120;-70
2022/04/01 01:31:26;;;;;;;13.55;12.25;;;5.80;99.90;;;;;;5054522;28;20128;-69
2022/04/01 01:33:54;;;;;;;14.20;12.82;;;5.80;99.90;;;;;;5054626;28;20021;-70
2022/04/01 01:36:20;;;;;;;14.13;12.68;;;5.70;99.90;;;;;;5054260;28;20067;-70
2022/04/01 01:38:46;;;;;;;14.25;12.85;;;5.70;99.90;;;;;;5054036;28;20072;-70
2022/04/01 01:41:12;;;;;;;14.45;12.95;;;5.70;99.90;;;;;;5053574;28;20177;-70
2022/04/01 01:43:38;;;;;;;14.82;13.35;;;5.70;99.90;;;;;;5054252;28;20025;-70
2022/04/01 01:46:05;;;;;;;14.15;12.70;;;5.60;99.90;;;;;;5053685;28;20025;-70
2022/04/01 01:48:30;;;;;;;12.65;11.45;;;5.60;99.90;;;;;;5054069;28;20040;-69
2022/04/01 01:56:44;;;;;;;13.15;11.77;;;5.60;99.90;;;;;;5053391;28;20067;-69
2022/04/01 01:59:13;;;;;;;13.60;12.20;;;5.60;99.90;;;;;;5053083;28;20025;-69
2022/04/01 02:01:39;;;;;;;12.90;11.60;;;5.50;99.90;;;;;;5053804;28;20184;-69
2022/04/01 02:04:05;;;;;;;14.65;12.48;;;5.50;99.90;;;;;;5053302;28;20052;-69
2022/04/01 02:06:32;;;;;;;13.68;12.27;;;5.50;99.90;;;;;;5053556;28;20112;-69
2022/04/01 02:08:58;;;;;;;13.60;12.10;;;5.50;99.90;;;;;;5053164;28;20489;-74
2022/04/01 02:11:24;;;;;;;14.77;12.27;;;5.50;99.90;;;;;;5053766;28;20024;-69
2022/04/01 02:13:50;;;;;;;13.05;11.80;;;5.50;99.90;;;;;;5053238;28;20037;-69
2022/04/01 02:16:17;;;;;;;13.25;11.95;;;5.50;99.90;;;;;;5051564;28;20394;-70
2022/04/01 02:18:43;;;;;;;13.68;11.88;;;5.50;99.90;;;;;;5052978;28;20382;-70
2022/04/01 02:21:12;;;;;;;13.48;12.10;;;5.50;99.90;;;;;;5052890;28;20029;-69
2022/04/01 02:23:43;;;;;;;13.25;11.85;;;5.50;99.90;;;;;;5053357;28;20064;-69
2022/04/01 02:26:09;;;;;;;12.82;11.52;;;5.50;99.90;;;;;;5052407;28;20035;-70
2022/04/01 02:28:36;;;;;;;12.98;11.77;;;5.60;99.90;;;;;;5053261;28;20419;-69
2022/04/01 02:31:03;;;;;;;14.07;12.68;;;5.50;99.90;;;;;;5052794;28;20445;-70
2022/04/01 02:33:29;;;;;;;13.65;12.35;;;5.50;99.90;;;;;;5053214;28;20025;-70
2022/04/01 02:35:57;;;;;;;13.77;12.38;;;5.40;99.90;;;;;;5051881;28;20109;-69
2022/04/01 02:38:25;;;;;;;15.18;13.57;;;5.50;99.90;;;;;;5052117;28;20469;-69
2022/04/01 02:40:55;;;;;;;13.82;12.52;;;5.50;99.90;;;;;;5053025;28;20025;-70
2022/04/01 02:43:21;;;;;;;14.98;13.02;;;5.50;99.90;;;;;;5052444;28;20103;-70
2022/04/01 02:45:48;;;;;;;14.52;13.07;;;5.50;99.90;;;;;;5052892;28;20120;-69
2022/04/01 02:48:15;;;;;;;13.80;12.40;;;5.50;99.90;;;;;;5052328;28;20116;-69
2022/04/01 02:50:41;;;;;;;15.27;13.77;;;5.50;99.90;;;;;;5052844;28;20104;-69
2022/04/01 02:53:07;;;;;;;14.30;12.90;;;5.40;99.90;;;;;;5051981;28;20032;-69
2022/04/01 02:55:32;;;;;;;14.80;13.30;;;5.40;99.90;;;;;;5052517;28;20409;-69
2022/04/01 02:57:59;;;;;;;14.68;13.25;;;5.40;99.90;;;;;;5052785;28;20036;-69
2022/04/01 03:00:24;;;;;;;14.95;13.10;;;5.40;99.90;;;;;;5052117;28;20032;-69
2022/04/01 03:02:50;;;;;;;14.18;12.77;;;5.40;99.90;;;;;;5052670;28;20033;-69
2022/04/01 03:05:17;;;;;;;14.20;12.75;;;5.40;99.90;;;;;;5051836;28;20331;-68
2022/04/01 03:07:44;;;;;;;15.05;13.52;;;5.40;99.90;;;;;;5052505;28;20029;-69
2022/04/01 03:10:11;;;;;;;15.45;13.40;;;5.40;99.90;;;;;;5052021;28;20039;-69
2022/04/01 03:12:37;;;;;;;15.25;13.65;;;5.30;99.90;;;;;;5052814;28;20056;-69
2022/04/01 03:15:04;;;;;;;14.38;12.90;;;5.40;99.90;;;;;;5051622;28;20060;-75
2022/04/01 03:17:31;;;;;;;15.23;13.68;;;5.30;99.90;;;;;;5052320;28;20086;-69
2022/04/01 03:19:59;;;;;;;16.67;14.75;;;5.30;99.90;;;;;;5052361;28;20029;-70
2022/04/01 03:22:25;;;;;;;15.32;13.93;;;5.30;99.90;;;;;;5051492;28;20048;-70
2022/04/01 03:24:51;;;;;;;14.93;13.23;;;5.30;99.90;;;;;;5051710;28;20028;-70
2022/04/01 03:27:17;;;;;;;15.82;14.00;;;5.30;99.90;;;;;;5051677;28;20033;-70
2022/04/01 03:29:42;;;;;;;15.02;13.63;;;5.20;99.90;;;;;;5052130;28;20151;-69
2022/04/01 03:32:10;;;;;;;16.70;14.23;;;5.20;99.90;;;;;;5051867;28;20051;-69
2022/04/01 03:34:36;;;;;;;14.77;13.32;;;5.20;99.90;;;;;;5052171;28;20025;-69
2022/04/01 03:37:05;;;;;;;16.10;14.43;;;5.20;99.90;;;;;;5052119;28;20036;-69
2022/04/01 03:39:32;;;;;;;14.55;13.15;;;5.20;99.90;;;;;;5052059;28;20071;-70
2022/04/01 03:41:58;;;;;;;14.35;12.95;;;5.20;99.90;;;;;;5052064;28;20082;-69
2022/04/01 03:44:25;;;;;;;15.10;13.55;;;5.20;99.90;;;;;;5050109;28;20458;-69
2022/04/01 03:47:02;;;;;;;14.75;13.23;;;5.20;99.90;;;;;;5051809;28;20037;-69
2022/04/01 03:49:31;;;;;;;15.85;13.45;;;5.20;99.90;;;;;;5051308;28;20167;-69
2022/04/01 03:51:59;;;;;;;14.70;13.20;;;5.20;99.90;;;;;;5051597;28;20028;-69
2022/04/01 03:54:25;;;;;;;15.07;13.57;;;5.20;99.90;;;;;;5051255;28;20036;-70
2022/04/01 03:56:58;;;;;;;16.20;14.50;;;5.20;99.90;;;;;;5052004;28;20056;-69
2022/04/01 03:59:26;;;;;;;17.10;15.40;;;5.20;99.90;;;;;;5033179;28;20101;-70
2022/04/01 04:01:53;;;;;;;16.55;14.95;;;5.20;99.90;;;;;;5050124;28;20460;-70
2022/04/01 04:04:20;;;;;;;15.70;14.20;;;5.30;99.90;;;;;;5050980;28;20044;-69
2022/04/01 04:06:47;;;;;;;16.42;14.82;;;5.20;99.90;;;;;;5051636;28;20386;-69
2022/04/01 04:09:16;;;;;;;15.55;14.02;;;5.30;99.90;;;;;;5050978;28;20489;-70
2022/04/01 04:11:44;;;;;;;16.08;14.38;;;5.30;99.90;;;;;;5051997;28;20029;-69
2022/04/01 04:14:09;;;;;;;15.57;13.98;;;5.20;99.90;;;;;;5050826;28;20036;-69
2022/04/01 04:16:45;;;;;;;15.95;14.40;;;5.20;99.90;;;;;;5050960;28;20116;-69
2022/04/01 04:19:32;;;;;;;14.98;13.48;;;5.30;99.90;;;;;;5049652;28;20029;-69
2022/04/01 04:22:04;;;;;;;15.25;13.75;;;5.30;99.90;;;;;;5050823;28;20028;-69
2022/04/01 04:24:35;;;;;;;15.57;13.52;;;5.20;99.90;;;;;;5043180;28;20025;-69
2022/04/01 04:27:12;;;;;;;15.07;13.50;;;5.30;99.90;;;;;;5051457;28;20029;-70
2022/04/01 04:29:51;;;;;;;16.50;14.10;;;5.30;99.90;;;;;;5050035;28;20175;-69
2022/04/01 04:32:33;;;;;;;14.40;12.90;;;5.30;99.90;;;;;;5051009;28;20089;-69
2022/04/01 04:35:04;;;;;;;14.63;13.23;;;5.30;99.90;;;;;;5051602;28;20074;-70
2022/04/01 04:37:34;;;;;;;14.73;13.23;;;5.30;99.90;;;;;;5054767;28;20033;-70
2022/04/01 04:40:01;;;;;;;15.15;13.55;;;5.30;99.90;;;;;;5055528;28;20040;-68
2022/04/01 04:42:27;;;;;;;15.52;13.93;;;5.30;99.90;;;;;;5054698;28;20031;-68
2022/04/01 04:44:54;;;;;;;15.20;13.70;;;5.30;99.90;;;;;;5055260;28;20351;-69
2022/04/01 04:47:28;;;;;;;15.60;14.10;;;5.20;99.90;;;;;;5054349;28;20036;-70
2022/04/01 04:49:57;;;;;;;17.02;15.43;;;5.20;99.90;;;;;;5055494;28;20106;-69
2022/04/01 04:52:32;;;;;;;16.48;14.85;;;5.20;99.90;;;;;;5053102;28;20350;-69
2022/04/01 04:54:59;;;;;;;15.05;13.65;;;5.20;99.90;;;;;;5054918;28;20080;-70
2022/04/01 04:57:26;;;;;;;15.15;13.68;;;5.20;99.90;;;;;;5054305;28;20032;-70
2022/04/01 04:59:53;;;;;;;15.32;13.82;;;5.20;99.90;;;;;;5054982;28;20021;-71
2022/04/01 05:02:27;;;;;;;16.00;14.50;;;5.20;99.90;;;;;;5054217;28;20398;-69
2022/04/01 05:05:03;;;;;;;15.98;14.38;;;5.20;99.90;;;;;;5055330;28;20107;-69
2022/04/01 05:07:44;;;;;;;16.27;14.77;;;5.20;99.90;;;;;;5054208;28;20033;-69
2022/04/01 05:10:16;;;;;;;14.65;13.15;;;5.20;99.90;;;;;;5033821;28;20382;-71
2022/04/01 05:13:17;;;;;;;15.32;13.13;;;5.20;99.90;;;;;;5036333;28;20033;-70
2022/04/01 05:15:51;;;;;;;15.00;13.52;;;5.20;99.90;;;;;;5043500;28;20040;-69
2022/04/01 05:18:33;;;;;;;15.07;13.68;;;5.30;99.90;;;;;;5053670;28;20033;-69
2022/04/01 05:21:02;;;;;;;14.18;12.73;;;5.20;99.90;;;;;;5034090;28;20079;-69
2022/04/01 05:23:50;;;;;;;13.60;12.27;;;5.30;99.90;;;;;;5033622;28;20053;-71
2022/04/01 05:26:23;;;;;;;16.95;12.93;;;5.20;99.90;;;;;;5033922;28;20394;-70
2022/04/01 05:28:53;;;;;;;13.82;12.35;;;5.20;99.90;;;;;;5034441;28;20478;-70
2022/04/01 05:31:30;;;;;;;13.93;12.43;;;5.30;99.90;;;;;;5032601;28;20037;-70
2022/04/01 05:34:17;;;;;;;13.65;12.25;;;5.30;99.90;;;;;;5034214;28;20104;-70
2022/04/01 05:36:43;;;;;;;13.48;12.07;;;5.30;99.90;;;;;;5034123;28;20454;-70
2022/04/01 05:39:12;;;;;;;13.02;11.73;;;5.30;99.90;;;;;;5034197;28;20109;-70
2022/04/01 05:41:39;;;;;;;15.32;12.07;;;5.30;99.90;;;;;;5033450;28;20048;-69
2022/04/01 05:44:09;;;;;;;13.10;11.70;;;5.30;99.90;;;;;;5034318;28;20101;-70
2022/04/01 05:46:36;;;;;;;13.13;11.93;;;5.30;99.90;;;;;;5033537;28;20037;-71
2022/04/01 05:49:05;;;;;;;13.30;11.73;;;5.30;99.90;;;;;;5034071;28;20112;-69
2022/04/01 05:51:31;;;;;;;13.95;12.55;;;5.20;99.90;;;;;;5032048;28;20362;-70
2022/04/01 05:53:58;;;;;;;13.32;12.02;;;5.20;99.90;;;;;;5034320;28;20021;-70
2022/04/01 05:56:27;;;;;;;13.82;12.43;;;5.20;99.90;;;;;;5033094;28;20061;-70
2022/04/01 05:58:52;;;;;;;13.50;12.20;;;5.20;99.90;;;;;;5034163;28;20101;-69
2022/04/01 06:01:40;;;;;;;13.60;12.30;;;5.20;99.90;;;;;;5033672;28;20116;-70
2022/04/01 06:04:27;;;;;;;13.38;12.07;;;5.30;99.90;;;;;;5034005;28;20441;-70
2022/04/01 06:07:05;;;;;;;12.02;10.82;;;5.20;99.90;;;;;;5034046;28;20432;-70
2022/04/01 06:09:55;;;;;;;13.43;12.13;;;5.20;99.90;;;;;;5033152;28;20030;-70
2022/04/01 06:12:29;;;;;;;13.00;10.73;;;5.30;99.90;;;;;;5033504;28;20402;-71
2022/04/01 06:15:14;;;;;;;11.68;10.48;;;5.30;99.90;;;;;;5033763;28;20037;-71
2022/04/01 06:18:05;;;;;;;11.63;10.35;;;5.20;99.90;;;;;;5047663;28;20392;-70
2022/04/01 06:20:34;;;;;;;11.32;10.10;;;5.20;99.90;;;;;;5052925;28;20377;-70
2022/04/01 06:23:16;;;;;;;11.35;10.07;;;5.20;99.90;;;;;;5053486;28;20021;-70
2022/04/01 06:25:51;;;;;;;10.90;9.80;;;5.30;99.90;;;;;;5053477;28;20029;-70
2022/04/01 06:28:26;;;;;;;11.15;9.88;;;5.20;99.90;;;;;;5053152;28;20545;-74
2022/04/01 06:31:01;;;;;;;10.07;9.05;;;5.30;99.90;;;;;;5053511;28;20074;-70
2022/04/01 06:33:37;;;;;;;9.88;8.88;;;5.30;99.90;;;;;;5052797;28;20020;-70
2022/04/01 06:36:11;;;;;;;10.15;9.15;;;5.30;99.90;;;;;;5053099;28;20559;-70
2022/04/01 06:38:41;;;;;;;9.98;8.98;;;5.30;99.90;;;;;;5052613;28;20074;-70
2022/04/01 06:41:18;;;;;;;9.90;8.43;;;5.30;99.90;;;;;;5053306;28;20059;-69
2022/04/01 06:43:43;;;;;;;12.80;9.40;;;5.40;99.90;;;;;;5053158;28;20028;-71
2022/04/01 06:46:10;;;;;;;9.75;8.63;;;5.40;99.90;;;;;;5053050;28;20381;-69
2022/04/01 06:48:36;;;;;;;9.88;8.85;;;5.40;99.90;;;;;;5052556;28;20416;-70
2022/04/01 06:51:02;;;;;;;9.45;8.55;;;5.40;99.90;;;;;;5053103;28;20033;-71
2022/04/01 06:53:28;;;;;;;9.88;8.40;;;5.40;99.90;;;;;;5052489;28;20066;-70
2022/04/01 06:55:54;;;;;;;8.80;7.90;;;5.30;99.90;;;;;;5051040;28;20128;-71
2022/04/01 06:58:21;;;;;;;9.40;8.38;;;5.30;99.90;;;;;;5052147;28;20119;-74
2022/04/01 07:00:47;;;;;;;8.57;7.72;;;5.30;99.90;;;;;;5052164;28;20195;-69
2022/04/01 07:03:12;;;;;;;9.18;8.23;;;5.30;99.90;;;;;;5052591;28;20159;-70
2022/04/01 07:05:38;;;;;;;10.75;8.85;;;5.30;99.90;;;;;;5052197;28;20531;-71
2022/04/01 07:08:06;;;;;;;9.63;8.35;;;5.40;99.90;;;;;;5052351;28;20037;-69
2022/04/01 07:10:32;;;;;;;11.82;8.02;;;5.40;99.90;;;;;;5052165;28;20040;-70
2022/04/01 07:12:58;;;;;;;8.05;7.25;;;5.40;99.90;;;;;;5052365;28;20569;-70
2022/04/01 07:15:24;;;;;;;8.00;7.20;;;5.40;99.90;;;;;;5052191;28;20094;-71
2022/04/01 07:17:50;;;;;;;7.90;7.10;;;5.40;99.90;;;;;;5052143;28;20029;-70
2022/04/01 07:20:16;;;;;;;7.80;7.10;;;5.40;99.90;;;;;;5052249;28;20033;-69
2022/04/01 07:22:42;;;;;;;8.00;7.20;;;5.40;99.90;;;;;;5051454;28;20032;-70
2022/04/01 07:25:12;;;;;;;7.43;6.72;;;5.40;99.90;;;;;;5052327;28;20021;-70
2022/04/01 07:27:39;;;;;;;8.23;7.10;;;5.40;99.90;;;;;;5051592;28;20075;-70
2022/04/01 07:30:09;;;;;;;7.38;6.68;;;5.40;99.90;;;;;;5052405;28;20517;-69
2022/04/01 07:32:36;;;;;;;8.57;6.90;;;5.40;99.90;;;;;;5051714;28;20028;-70
2022/04/01 07:35:05;;;;;;;6.97;6.28;;;5.50;99.90;;;;;;5050669;28;20807;-70
2022/04/01 07:37:31;;;;;;;7.18;6.47;;;5.50;99.90;;;;;;5051685;28;20025;-71
2022/04/01 07:39:57;;;;;;;6.30;5.65;;;5.50;99.90;;;;;;5051977;28;20036;-70
2022/04/01 07:42:25;;;;;;;7.18;6.40;;;5.50;99.90;;;;;;5051437;28;20025;-70
2022/04/01 07:44:51;;;;;;;7.43;6.38;;;5.50;99.40;;;;;;5051993;28;20065;-70
2022/04/01 07:47:18;;;;;;;6.25;5.65;;;5.40;98.80;;;;;;5051958;28;20068;-70
2022/04/01 07:49:45;;;;;;;7.45;6.60;;;5.40;99.20;;;;;;5051397;28;20111;-71
2022/04/01 07:52:13;;;;;;;6.55;5.75;;;5.40;99.40;;;;;;5052051;28;20056;-69
2022/04/01 07:54:41;;;;;;;6.90;6.20;;;5.50;99.10;;;;;;5050916;28;20025;-70
2022/04/01 07:57:07;;;;;;;6.20;5.60;;;5.40;98.70;;;;;;5051915;28;20036;-70
2022/04/01 07:59:34;;;;;;;7.95;6.20;;;5.50;99.20;;;;;;5051394;28;20025;-71
2022/04/01 08:02:00;;;;;;;6.35;5.78;;;5.50;99.40;;;;;;5051889;28;20024;-69
2022/04/01 08:04:27;;;;;;;6.15;5.55;;;5.60;99.30;;;;;;5051234;28;20064;-70
2022/04/01 08:06:57;;;;;;;6.53;5.65;;;5.60;99.20;;;;;;5052038;28;20033;-69
2022/04/01 08:09:26;;;;;;;11.02;5.97;;;5.60;98.90;;;;;;5051918;28;20039;-70
2022/04/01 08:11:52;;;;;;;8.32;5.93;;;5.70;98.10;;;;;;5057131;28;20047;-69
2022/04/01 08:14:18;;;;;;;6.95;6.10;;;5.70;97.60;;;;;;5057168;28;20373;-71
2022/04/01 08:16:44;;;;;;;9.98;5.90;;;5.70;97.60;;;;;;5058169;28;20482;-69
2022/04/01 08:19:11;;;;;;;6.68;5.57;;;5.70;97.20;;;;;;5058317;28;20417;-70
2022/04/01 08:21:37;;;;;;;6.45;5.85;;;5.60;96.60;;;;;;5057819;28;20051;-70
2022/04/01 08:24:04;;;;;;;6.63;5.93;;;5.60;96.60;;;;;;5058379;28;20029;-70
2022/04/01 08:26:29;;;;;;;7.43;5.78;;;5.60;96.60;;;;;;5057695;28;20048;-70
2022/04/01 08:28:55;;;;;;;6.85;5.80;;;5.60;96.90;;;;;;5058090;28;20025;-71
2022/04/01 08:31:21;;;;;;;6.40;5.78;;;5.50;97.10;;;;;;5058263;28;20424;-70
2022/04/01 08:33:50;;;;;;;6.50;5.90;;;5.50;97.20;;;;;;5057646;28;20025;-70
2022/04/01 08:36:17;;;;;;;8.20;6.22;;;5.60;97.50;;;;;;5058337;28;20037;-70
2022/04/01 08:38:43;;;;;;;8.73;5.95;;;5.50;97.70;;;;;;5057541;28;20028;-70
2022/04/01 08:41:09;;;;;;;6.47;5.88;;;5.60;98.20;;;;;;5058345;28;20033;-69
2022/04/01 08:43:39;;;;;;;7.20;5.60;;;5.60;97.90;;;;;;5057624;28;20036;-71
2022/04/01 08:46:07;;;;;;;7.13;5.60;;;5.70;97.70;;;;;;5058396;28;20024;-69
2022/04/01 08:48:34;;;;;;;7.60;6.22;;;5.80;97.80;;;;;;5057621;28;20033;-70
2022/04/01 08:51:00;;;;;;;8.65;5.95;;;5.80;97.50;;;;;;5058176;28;20102;-69
2022/04/01 08:53:27;;;;;;;8.55;5.95;;;5.80;97.20;;;;;;5058119;28;20079;-69
2022/04/01 08:55:55;;;;;;;7.28;5.95;;;5.70;97.20;;;;;;5057767;28;20076;-70
2022/04/01 08:58:23;;;;;;;6.80;6.15;;;5.80;97.30;;;;;;5057965;28;20036;-70
2022/04/01 09:00:50;;;;;;;6.22;5.63;;;5.80;96.80;;;;;;5057281;28;20037;-69
2022/04/01 09:03:19;;;;;;;6.63;5.95;;;5.80;96.00;;;;;;5057678;28;20029;-69
2022/04/01 09:05:50;;;;;;;6.47;5.88;;;5.90;96.00;;;;;;5057398;28;20064;-70
2022/04/01 09:08:27;;;;;;;7.72;6.43;;;5.80;96.00;;;;;;5058220;28;20040;-71
2022/04/01 09:10:53;;;;;;;6.93;6.22;;;5.80;96.10;;;;;;5057248;28;20168;-70
2022/04/01 09:13:20;;;;;;;7.30;6.00;;;5.90;96.20;;;;;;5057811;28;20033;-70
2022/04/01 09:15:46;;;;;;;6.80;6.03;;;5.90;96.10;;;;;;5057242;28;20129;-69
2022/04/01 09:18:11;;;;;;;6.38;5.78;;;5.80;95.10;;;;;;5057598;28;20104;-70
2022/04/01 09:20:51;;;;;;;6.57;5.95;;;5.80;95.20;;;;;;5057188;28;20060;-71
2022/04/01 09:23:23;;;;;;;8.75;5.78;;;5.80;95.80;;;;;;5054285;28;20037;-70
2022/04/01 09:25:50;;;;;;;6.43;5.82;;;5.90;95.60;;;;;;5054272;28;20397;-70
2022/04/01 09:28:38;;;;;;;7.95;5.85;;;5.90;95.40;;;;;;5054590;28;20029;-70
2022/04/01 09:31:09;;;;;;;8.27;6.25;;;5.80;95.00;;;;;;5054774;28;20025;-70
2022/04/01 09:33:45;;;;;;;7.72;6.13;;;5.90;95.30;;;;;;5054281;28;20100;-70
2022/04/01 09:36:15;;;;;;;9.70;6.15;;;5.90;95.00;;;;;;5054463;28;20095;-70
2022/04/01 09:38:55;;;;;;;8.18;5.97;;;5.90;95.40;;;;;;5053840;28;20028;-70
2022/04/01 09:41:46;;;;;;;6.70;6.00;;;5.90;95.40;;;;;;5054565;28;20047;-69
2022/04/01 09:44:27;;;;;;;7.43;6.30;;;6.00;95.60;;;;;;5054592;28;20029;-71
2022/04/01 09:46:56;;;;;;;10.00;5.50;;;6.10;95.10;;;;;;5052323;28;20521;-69
2022/04/01 09:49:35;;;;;;;5.97;5.47;;;6.10;94.90;;;;;;5054099;28;20118;-70
2022/04/01 09:52:01;;;;;;;6.78;5.90;;;6.00;93.70;;;;;;5054175;28;20032;-72
2022/04/01 09:54:27;;;;;;;6.05;5.35;;;6.00;94.00;;;;;;5053961;28;20065;-70
2022/04/01 09:56:56;;;;;;;6.80;5.82;;;6.00;94.30;;;;;;5053158;28;20153;-71
2022/04/01 09:59:24;;;;;;;6.40;5.80;;;5.90;94.10;;;;;;5053682;28;20436;-70
2022/04/01 10:01:50;;;;;;;5.93;5.38;;;5.90;94.00;;;;;;5052805;28;20480;-70
2022/04/01 10:04:16;;;;;;;6.60;6.03;;;5.90;93.90;;;;;;5052236;28;20068;-70
2022/04/01 10:06:42;;;;;;;5.95;5.35;;;5.90;93.40;;;;;;5053333;28;20056;-69
2022/04/01 10:09:10;;;;;;;9.82;7.90;;;6.00;93.50;;;;;;5053806;28;20551;-69
2022/04/01 10:11:38;;;;;;;6.05;5.55;;;5.90;93.10;;;;;;5053282;28;20182;-70
2022/04/01 10:14:14;;;;;;;7.97;5.85;;;6.00;93.20;;;;;;5054002;28;20155;-70
2022/04/01 10:16:42;;;;;;;6.32;5.72;;;6.00;93.20;;;;;;5053198;28;20025;-70
2022/04/01 10:19:21;;;;;;;10.27;5.90;;;6.00;93.30;;;;;;5053661;28;20025;-70
2022/04/01 10:22:06;;;;;;;6.72;5.57;;;6.00;93.00;;;;;;5053061;28;20017;-70
2022/04/01 10:24:57;;;;;;;6.60;5.82;;;6.10;92.90;;;;;;5053600;28;20092;-70
2022/04/01 10:27:26;;;;;;;;;;;6.10;92.60;;;;;;5053818;28;20025;-70
2022/04/01 10:29:56;;;;;;;10.30;7.57;;;6.10;92.40;;;;;;5053096;28;19908;-72
2022/04/01 10:32:28;;;;;;;6.82;6.22;;;6.20;92.60;;;;;;5053649;28;20465;-69
2022/04/01 10:34:59;;;;;;;6.90;6.20;;;6.20;92.50;;;;;;5052291;28;20279;-70
2022/04/01 10:37:27;;;;;;;6.85;6.25;;;6.20;92.50;;;;;;5053061;28;20385;-70
2022/04/01 10:39:58;;;;;;;6.63;5.93;;;6.20;91.80;;;;;;5052560;28;20481;-70
2022/04/01 10:42:34;;;;;;;7.35;6.60;;;6.20;91.70;;;;;;5053300;28;20076;-70
2022/04/01 10:45:04;;;;;;;9.05;6.90;;;6.10;90.80;;;;;;5052800;28;20116;-69
2022/04/01 10:53:56;;;;;;;7.15;5.95;;;6.20;91.00;;;;;;5053018;28;20078;-70
2022/04/01 10:56:25;;;;;;;7.28;6.57;;;6.30;91.30;;;;;;5030122;28;20214;-69
2022/04/01 10:59:22;;;;;;;6.57;5.97;;;6.30;91.20;;;;;;5029930;28;20057;-70
2022/04/01 11:01:54;;;;;;;7.38;5.70;;;6.30;91.60;;;;;;5029875;28;20048;-70
2022/04/01 11:04:19;;;;;;;6.35;5.75;;;6.30;90.80;;;;;;5030546;28;20037;-70
2022/04/01 11:06:55;;;;;;;6.68;5.88;;;6.30;91.00;;;;;;5029775;28;20036;-70
2022/04/01 11:09:49;;;;;;;6.85;6.18;;;6.40;90.90;;;;;;5030602;28;20029;-71
2022/04/01 11:12:18;;;;;;;6.28;5.68;;;6.30;90.30;;;;;;5030351;28;20112;-71
2022/04/01 11:15:11;;;;;;;6.53;5.85;;;6.40;90.30;;;;;;5029748;28;20033;-70
2022/04/01 11:17:37;;;;;;;6.57;5.90;;;6.40;90.60;;;;;;5029675;28;20469;-75
2022/04/01 11:20:10;;;;;;;6.70;5.70;;;6.40;90.50;;;;;;5030039;28;20033;-69
2022/04/01 11:22:39;;;;;;;6.30;5.70;;;6.40;90.30;;;;;;5030284;28;20025;-70
2022/04/01 11:25:24;;;;;;;6.22;5.53;;;6.40;90.50;;;;;;5030042;28;20036;-70
2022/04/01 11:27:58;;;;;;;5.35;4.85;;;6.50;90.50;;;;;;5046837;28;20036;-70
2022/04/01 11:30:26;;;;;;;6.45;5.78;;;6.50;90.60;;;;;;5052014;28;20036;-70
2022/04/01 11:32:54;;;;;;;6.07;5.47;;;6.50;90.00;;;;;;5051753;28;20032;-70
2022/04/01 11:35:29;;;;;;;6.22;5.43;;;6.50;89.80;;;;;;5052174;28;20021;-70
2022/04/01 11:37:56;;;;;;;6.40;5.63;;;6.50;88.90;;;;;;5050394;28;20124;-69
2022/04/01 11:40:30;;;;;;;6.95;6.30;;;6.40;88.50;;;;;;5052080;28;20369;-70
2022/04/01 11:42:58;;;;;;;6.00;5.32;;;6.40;88.30;;;;;;5051863;28;20100;-71
2022/04/01 11:45:26;;;;;;;5.82;4.95;;;6.30;88.80;;;;;;5051597;28;20029;-69
2022/04/01 11:47:52;;;;;;;5.93;5.35;;;6.20;88.90;;;;;;5051242;28;20028;-70
2022/04/01 11:50:20;;;;;;;5.75;5.25;;;6.20;90.30;;;;;;5051959;28;20052;-70
2022/04/01 11:52:49;;;;;;;5.75;5.22;;;6.20;89.80;;;;;;5051351;28;20032;-70
2022/04/01 11:55:23;;;;;;;7.20;5.10;;;6.30;89.60;;;;;;5051826;28;20466;-71
2022/04/01 11:57:51;;;;;;;5.40;4.90;;;6.30;90.00;;;;;;5051584;28;20033;-70
2022/04/01 12:00:23;;;;;;;5.97;5.30;;;6.40;89.20;;;;;;5051329;28;20082;-70
2022/04/01 12:02:51;;;;;;;;;;;6.40;89.30;;;;;;5051525;28;20197;-70
2022/04/01 12:05:17;;;;;;;5.95;4.90;;;6.50;88.40;;;;;;5051878;28;20383;-70
2022/04/01 12:10:36;;;;;;;7.90;5.28;;;6.50;86.90;;;;;;5051798;28;20044;-70
2022/04/01 12:13:07;;;;;;;5.97;5.38;;;6.50;86.80;;;;;;5051281;28;20062;-70
2022/04/01 12:15:44;;;;;;;6.03;5.53;;;6.50;87.60;;;;;;5051721;28;20056;-71
2022/04/01 12:18:15;;;;;;;6.28;5.68;;;6.60;88.40;;;;;;5051587;28;20040;-70
2022/04/01 12:20:46;;;;;;;6.30;5.68;;;6.60;87.90;;;;;;5051779;28;20021;-71
2022/04/01 12:23:13;;;;;;;6.55;5.38;;;6.60;88.00;;;;;;5051753;28;20139;-71
2022/04/01 12:25:42;;;;;;;6.88;6.05;;;6.60;87.90;;;;;;5051427;28;20468;-70
2022/04/01 12:28:10;;;;;;;6.70;5.22;;;6.70;88.00;;;;;;5051198;28;20127;-69
2022/04/01 12:30:39;;;;;;;7.00;5.18;;;6.70;87.70;;;;;;5051539;28;20051;-70
2022/04/01 12:33:15;;;;;;;7.65;5.43;;;6.80;87.70;;;;;;5050936;28;20033;-71
2022/04/01 12:35:55;;;;;;;6.72;5.25;;;6.80;87.50;;;;;;5051578;28;20025;-70
2022/04/01 12:38:21;;;;;;;6.00;5.13;;;6.80;85.90;;;;;;5051826;28;20025;-69
2022/04/01 12:40:47;;;;;;;6.25;4.90;;;6.80;86.40;;;;;;5050919;28;20422;-69
2022/04/01 12:43:37;;;;;;;5.38;4.90;;;6.90;86.60;;;;;;5051511;28;20025;-70
2022/04/01 12:46:09;;;;;;;6.18;4.40;;;6.90;86.80;;;;;;5050694;28;20032;-70
2022/04/01 12:48:47;;;;;;;5.60;5.10;;;6.80;85.80;;;;;;5050207;28;20355;-71
2022/04/01 12:51:33;;;;;;;5.10;4.60;;;6.80;85.90;;;;;;5050082;28;20542;-71
2022/04/01 12:54:06;;;;;;;5.97;4.95;;;6.80;86.30;;;;;;5050727;28;20066;-69
2022/04/01 12:56:38;;;;;;;5.82;4.55;;;6.80;85.60;;;;;;5051373;28;20045;-70
2022/04/01 12:59:10;;;;;;;4.82;4.35;;;6.80;86.00;;;;;;5053891;28;20036;-70
2022/04/01 13:01:38;;;;;;;5.13;4.55;;;6.80;85.80;;;;;;5055073;28;20086;-70
2022/04/01 13:04:05;;;;;;;4.88;4.47;;;6.80;85.80;;;;;;5054447;28;20094;-69
2022/04/01 13:06:31;;;;;;;6.82;4.80;;;6.80;86.90;;;;;;5054607;28;20053;-70
2022/04/01 13:09:10;;;;;;;5.15;4.20;;;6.90;87.60;;;;;;5054243;28;20378;-71
2022/04/01 13:11:44;;;;;;;4.72;4.00;;;7.00;87.10;;;;;;5055167;28;20029;-71
2022/04/01 13:14:27;;;;;;;4.35;3.95;;;7.00;86.40;;;;;;5054403;28;20021;-71
2022/04/01 13:16:58;;;;;;;4.78;4.28;;;7.10;85.60;;;;;;5054189;28;20033;-71